Jasper, TN (37347)

11:10 AM CDT on August 04, 2015 (GMT -0500)
Down Town | | Change Station
CLOSE
Current Station
Personal Weather Station
Location: Jasper, TN
Elevation: 666 ft
Nearby Weather Stations

Elev 666 ft 35.08 °N, 85.63 °W | Updated 2 seconds ago

Clear
Clear
87.1 °F
Feels Like 99 °F
N
0.0
Wind Variable Wind from SSW
Gusts 3.0 mph

Today
High -- | Low -- °F
--% Chance of Precip.
Yesterday
High -- | Low -- °F
Precip. -- in
5:53 AM 7:42 PM
Waning Gibbous, 76% visible
Pressure 30.01 in
Visibility 10.0 miles
Clouds Scattered Clouds 25000 ft
Scattered Clouds 30000 ft
Heat Index 99 °F
Dew Point 77 °F
Humidity 72%
Rainfall 0.00 in
Snow Depth Not available.
UV 8 out of 12
Pollen 4.90 out of 12
Air Quality Not available.
Flu Activity Not available.
METAR KCHA 041553Z 32004KT 10SM SCT250 SCT300 32/20 A3004 RMK AO2 SLP161 T03220200

More Conditions Fewer Conditions

Pressure 30.01 in
Visibility 10.0 miles
Clouds Scattered Clouds 25000 ft
Scattered Clouds 30000 ft
Heat Index 99 °F
Dew Point 77 °F
Humidity 72%
Rainfall 0.00 in
Snow Depth Not available.
UV 8 out of 12
Pollen 4.90 out of 12
Air Quality Not available.
Flu Activity Not available.
METAR KCHA 041553Z 32004KT 10SM SCT250 SCT300 32/20 A3004 RMK AO2 SLP161 T03220200

More Conditions Fewer Conditions

10-Day Weather Forecast

×

Almanac

Astronomy

Aug. 04, 2015 Rise Set
Actual Time
Civil Twilight
Nautical Twilight
Astronomical Twilight
Moon
Length of Visible Light
Length of Day
Tomorrow will be .
, % of the Moon is Illuminated

Today's Extremes

State Highs State Lows

Community

WunderPhotos

Upload Photos

1,843,913 photos uploaded!

WunderBlogs® & News

Nearby

Air Quality

  Air Quality AQ Index Pollutant
Not available.

Snow Depth

Station Depth Elevation

Earthquake Activity

City Distance Mag. Time & Date
Minimum magnitude displayed is 2.5.

Coastal Water Temperatures

Place Temperature

Stations

Nearby Weather Stations

Station Location Temp. Windchill Dew Point Humidity Wind Precip. Elev Updated Type